UPG weather

Hasanuddin International Airport
Ujung Pandang-Celebes Island, Sulawesi Selatan, Indonesia

Public forecast

Using degrees Celsius for public forecast. Weather courtesy of forecast.io.

Current aviation weather report (METAR) for Hasanuddin International Airport

Retrieved 2019/10/15 08:30 UTC (4 minutes ago):

WAAA 150830Z 23010KT 210V270 9999 FEW020 33/18 Q1006 NOSIG

Aviation forecast (TAF) for Hasanuddin International Airport

Retrieved 2019/10/15 06:12 UTC (2 hours ago):

TAF TAF WAAA 150500Z 1506/1612 29010KT 9000 FEW020 BECMG 1510/1512 09003KT 8000 TEMPO 1516/1520 21002KT BECMG 1602/1604 30010KT 9999